Time;durP1;ratioP1;P1;durP2;ratioP2;P2;SDS_P1;SDS_P2;PMS_P1;PMS_P2;Temp;Humidity;BMP_temperature;BMP_pressure;BME280_temperature;BME280_humidity;BME280_pressure;Samples;Min_cycle;Max_cycle;Signal;HPM_P1;HPM_P2
2021/06/12 00:01:38;;;;;;;36.55;19.45;;;;;;;19.61;56.99;98509.16;5062211;28;20031;-80
2021/06/12 00:04:04;;;;;;;39.00;20.42;;;;;;;19.58;56.84;98499.56;5063021;28;20028;-79
2021/06/12 00:06:30;;;;;;;36.08;19.17;;;;;;;19.57;56.83;98503.53;5074438;28;20111;-78
2021/06/12 00:08:55;;;;;;;40.65;20.98;;;;;;;19.56;56.50;98498.31;5086478;28;20024;-78
2021/06/12 00:11:20;;;;;;;37.33;19.58;;;;;;;19.55;56.38;98505.06;5085235;28;20078;-79
2021/06/12 00:13:46;;;;;;;37.30;20.55;;;;;;;19.54;56.76;98506.22;5068828;28;20035;-78
2021/06/12 00:16:11;;;;;;;36.10;20.25;;;;;;;19.52;56.51;98509.34;5069045;28;20048;-79
2021/06/12 00:18:36;;;;;;;35.17;18.60;;;;;;;19.52;56.68;98498.22;5069795;28;20469;-79
2021/06/12 00:21:02;;;;;;;37.22;19.20;;;;;;;19.49;56.42;98496.97;5063219;28;20058;-81
2021/06/12 00:23:29;;;;;;;34.58;19.95;;;;;;;19.46;56.39;98502.41;5079016;28;20069;-79
2021/06/12 00:25:55;;;;;;;43.85;22.42;;;;;;;19.45;56.49;98500.78;5092758;28;20028;-78
2021/06/12 00:28:20;;;;;;;38.67;20.52;;;;;;;19.39;56.14;98497.47;5091258;28;20115;-78
2021/06/12 00:30:46;;;;;;;36.13;19.73;;;;;;;19.37;56.25;98494.22;5073524;28;20054;-78
2021/06/12 00:33:11;;;;;;;37.55;19.83;;;;;;;19.31;56.76;98504.81;5092516;28;20058;-78
2021/06/12 00:35:37;;;;;;;35.88;19.60;;;;;;;19.28;56.07;98501.91;5092193;28;20028;-78
2021/06/12 00:38:03;;;;;;;35.47;18.63;;;;;;;19.20;56.47;98498.13;5091815;28;20024;-78
2021/06/12 00:40:28;;;;;;;39.72;19.88;;;;;;;19.16;56.39;98502.75;5090923;28;20024;-78
2021/06/12 00:42:54;;;;;;;32.42;19.95;;;;;;;19.07;56.35;98499.31;5091787;28;20032;-78
2021/06/12 00:45:22;;;;;;;32.80;19.33;;;;;;;19.01;56.37;98498.75;5091942;28;20013;-78
2021/06/12 00:47:51;;;;;;;34.20;19.80;;;;;;;18.97;56.44;98489.50;5092015;28;20024;-78
2021/06/12 00:50:18;;;;;;;34.50;19.02;;;;;;;18.93;56.42;98491.34;5091937;28;20073;-78
2021/06/12 00:52:43;;;;;;;30.48;18.40;;;;;;;18.88;56.44;98484.06;5091829;28;20028;-78
2021/06/12 00:55:11;;;;;;;33.08;17.55;;;;;;;18.84;56.36;98485.94;5092037;28;20103;-79
2021/06/12 00:57:37;;;;;;;32.38;18.42;;;;;;;18.81;56.46;98486.63;5091744;28;20020;-79
2021/06/12 01:00:08;;;;;;;32.33;17.35;;;;;;;18.75;56.29;98478.53;5091882;28;20108;-79
2021/06/12 01:02:35;;;;;;;29.15;17.33;;;;;;;18.68;56.56;98483.84;5089646;28;20035;-77
2021/06/12 01:05:00;;;;;;;30.15;17.70;;;;;;;18.62;56.36;98485.25;5093043;28;20457;-77
2021/06/12 01:07:26;;;;;;;27.27;16.85;;;;;;;18.56;56.38;98481.09;5091588;28;20050;-76
2021/06/12 01:09:52;;;;;;;26.23;15.90;;;;;;;18.51;56.31;98493.25;5091841;28;20407;-77
2021/06/12 01:12:45;;;;;;;25.85;15.10;;;;;;;18.48;56.31;98487.59;5073505;28;20024;-78
2021/06/12 01:15:11;;;;;;;24.90;15.75;;;;;;;18.43;56.32;98478.34;5091356;28;20063;-77
2021/06/12 01:17:55;;;;;;;23.85;15.10;;;;;;;18.43;56.35;98491.41;5091410;28;20024;-78
2021/06/12 01:20:30;;;;;;;26.20;15.07;;;;;;;18.40;56.29;98483.78;5090385;28;20039;-78
2021/06/12 01:23:11;;;;;;;23.38;13.85;;;;;;;18.35;56.32;98482.06;5090911;28;20123;-78
2021/06/12 01:26:06;;;;;;;20.25;12.98;;;;;;;18.31;56.32;98483.91;5086029;28;20058;-78
2021/06/12 01:29:01;;;;;;;19.90;12.45;;;;;;;18.30;56.26;98479.50;5090535;28;20126;-78
2021/06/12 01:31:28;;;;;;;20.38;12.40;;;;;;;18.26;56.24;98484.13;5015684;28;20137;-77
2021/06/12 01:33:54;;;;;;;19.60;13.10;;;;;;;18.22;56.11;98469.31;5090779;28;20031;-79
2021/06/12 01:36:21;;;;;;;18.08;12.55;;;;;;;18.18;56.25;98472.00;5090790;28;20016;-79
2021/06/12 01:38:50;;;;;;;23.83;13.05;;;;;;;18.12;56.35;98471.44;5093870;28;20080;-78
2021/06/12 01:41:19;;;;;;;21.80;13.55;;;;;;;18.09;56.16;98461.00;5090879;28;20073;-79
2021/06/12 01:43:45;;;;;;;25.50;13.13;;;;;;;18.06;56.23;98464.47;5091009;28;20058;-78
2021/06/12 01:46:12;;;;;;;23.67;13.05;;;;;;;18.04;56.27;98460.41;5092767;28;20024;-78
2021/06/12 01:48:41;;;;;;;22.90;13.48;;;;;;;18.02;56.11;98459.94;5089374;28;20028;-78
2021/06/12 01:51:08;;;;;;;25.50;14.20;;;;;;;17.99;56.34;98458.69;5094553;28;20043;-78
2021/06/12 01:53:37;;;;;;;20.38;13.23;;;;;;;17.94;56.13;98456.09;5091019;28;20082;-79
2021/06/12 01:56:05;;;;;;;22.08;13.65;;;;;;;17.91;56.01;98459.56;5098516;28;20071;-80
2021/06/12 01:58:31;;;;;;;22.77;14.02;;;;;;;17.86;56.39;98450.31;5091626;28;20031;-80
2021/06/12 02:00:59;;;;;;;25.02;13.70;;;;;;;17.83;56.23;98459.31;5091032;28;20039;-79
2021/06/12 02:03:26;;;;;;;25.02;13.63;;;;;;;17.81;56.11;98460.84;5090830;28;20024;-79
2021/06/12 02:05:52;;;;;;;23.55;14.18;;;;;;;17.77;56.31;98459.91;5090491;28;20115;-79
2021/06/12 02:08:19;;;;;;;25.10;14.23;;;;;;;17.67;56.22;98452.84;5090714;28;20070;-79
2021/06/12 02:10:47;;;;;;;25.98;14.38;;;;;;;17.62;56.43;98453.06;5090617;28;20051;-78
2021/06/12 02:13:13;;;;;;;20.88;14.60;;;;;;;17.58;56.22;98452.13;5091194;28;20031;-79
2021/06/12 02:15:40;;;;;;;22.23;13.55;;;;;;;17.53;56.41;98447.59;5091052;28;20020;-78
2021/06/12 02:18:10;;;;;;;23.92;14.45;;;;;;;17.44;56.36;98441.34;5091950;28;20012;-80
2021/06/12 02:20:38;;;;;;;28.50;14.13;;;;;;;17.39;56.41;98447.91;5092047;28;20020;-79
2021/06/12 02:23:07;;;;;;;28.15;15.13;;;;;;;17.37;56.64;98453.00;5091827;28;20023;-79
2021/06/12 02:25:33;;;;;;;25.83;15.27;;;;;;;17.34;56.67;98451.72;5091592;28;20039;-79
2021/06/12 02:28:03;;;;;;;24.02;14.65;;;;;;;17.33;56.75;98452.03;5094854;28;20027;-79
2021/06/12 02:30:31;;;;;;;22.45;14.73;;;;;;;17.32;56.99;98450.44;5091992;28;20023;-79
2021/06/12 02:33:09;;;;;;;26.42;15.45;;;;;;;17.31;56.90;98451.59;5091362;28;20103;-76
2021/06/12 02:35:35;;;;;;;24.17;15.25;;;;;;;17.30;57.01;98455.53;5091276;28;20099;-75
2021/06/12 02:38:00;;;;;;;22.10;13.85;;;;;;;17.31;57.12;98457.16;5091480;28;20540;-79
2021/06/12 02:40:27;;;;;;;28.88;15.43;;;;;;;17.30;56.91;98450.00;5091409;28;20020;-76
2021/06/12 02:42:52;;;;;;;24.05;14.60;;;;;;;17.30;56.96;98450.78;5091690;28;20028;-77
2021/06/12 02:45:18;;;;;;;24.85;15.25;;;;;;;17.28;56.84;98458.63;5091400;28;20051;-76
2021/06/12 02:47:52;;;;;;;24.13;14.40;;;;;;;17.25;56.89;98464.84;5090827;28;20077;-77
2021/06/12 02:50:20;;;;;;;25.27;15.07;;;;;;;17.21;57.08;98456.41;5092167;28;20024;-80
2021/06/12 02:52:47;;;;;;;25.17;14.68;;;;;;;17.23;57.01;98462.44;5094907;28;20125;-81
2021/06/12 02:55:14;;;;;;;23.55;14.80;;;;;;;17.22;57.10;98460.81;5093501;28;20024;-81
2021/06/12 02:57:46;;;;;;;22.13;14.32;;;;;;;17.20;57.21;98454.78;5095577;28;20020;-80
2021/06/12 03:00:13;;;;;;;25.30;14.55;;;;;;;17.21;57.47;98459.19;5093086;28;20488;-80
2021/06/12 03:02:42;;;;;;;24.20;15.20;;;;;;;17.19;57.01;98461.50;5093990;28;20472;-80
2021/06/12 03:05:29;;;;;;;24.67;14.60;;;;;;;17.20;57.22;98467.81;5074740;28;20114;-80
2021/06/12 03:07:57;;;;;;;23.58;14.77;;;;;;;17.20;57.22;98463.09;5093057;28;20484;-80
2021/06/12 03:10:26;;;;;;;24.00;14.70;;;;;;;17.21;57.31;98456.41;5094141;28;20032;-82
2021/06/12 03:12:54;;;;;;;27.08;16.08;;;;;;;17.24;57.64;98461.28;5094694;28;20024;-81
2021/06/12 03:15:20;;;;;;;29.85;16.73;;;;;;;17.25;57.39;98467.63;5094766;28;20081;-81
2021/06/12 03:17:48;;;;;;;31.30;17.50;;;;;;;17.22;57.46;98463.59;5093166;28;20035;-81
2021/06/12 03:20:16;;;;;;;35.55;18.85;;;;;;;17.25;57.66;98459.31;5076988;28;20020;-81
2021/06/12 03:22:47;;;;;;;40.58;18.75;;;;;;;17.28;57.62;98463.38;5096002;28;20099;-81
2021/06/12 03:25:17;;;;;;;37.38;18.90;;;;;;;17.27;57.53;98468.09;5097732;28;20023;-82
2021/06/12 03:27:43;;;;;;;41.65;19.52;;;;;;;17.28;57.92;98477.22;5075982;28;20019;-81
2021/06/12 03:30:09;;;;;;;30.23;18.10;;;;;;;17.30;58.06;98472.94;5094925;28;20028;-80
2021/06/12 03:32:35;;;;;;;29.00;16.63;;;;;;;17.35;58.17;98474.69;5094451;28;20020;-80
2021/06/12 03:35:01;;;;;;;26.55;16.50;;;;;;;17.39;58.14;98479.22;5095142;28;20391;-80
2021/06/12 03:37:27;;;;;;;27.33;17.20;;;;;;;17.43;58.13;98481.31;5094429;28;20491;-79
2021/06/12 03:39:53;;;;;;;30.90;17.10;;;;;;;17.45;58.18;98479.81;5095535;28;20028;-80
2021/06/12 03:42:20;;;;;;;30.90;16.90;;;;;;;17.46;58.05;98480.66;5094054;28;20036;-80
2021/06/12 03:44:46;;;;;;;32.83;18.13;;;;;;;17.47;58.07;98483.06;5094137;28;20162;-81
2021/06/12 03:47:13;;;;;;;32.08;17.80;;;;;;;17.51;58.37;98483.19;5094143;28;20111;-80
2021/06/12 03:49:39;;;;;;;33.47;17.25;;;;;;;17.55;57.97;98489.66;5094034;28;20024;-81
2021/06/12 03:52:06;;;;;;;29.20;17.70;;;;;;;17.58;58.18;98486.19;5092373;28;20409;-80
2021/06/12 03:54:32;;;;;;;32.72;18.20;;;;;;;17.61;58.27;98485.53;5094652;28;20468;-81
2021/06/12 03:56:58;;;;;;;31.73;18.10;;;;;;;17.62;58.22;98483.56;5094251;28;20496;-80
2021/06/12 03:59:25;;;;;;;33.70;18.83;;;;;;;17.66;58.16;98485.31;5093626;28;20016;-79
2021/06/12 04:01:50;;;;;;;29.10;17.33;;;;;;;17.73;58.16;98475.63;5096348;28;20035;-80
2021/06/12 04:04:16;;;;;;;35.10;19.65;;;;;;;17.74;58.27;98478.03;5093943;28;20028;-80
2021/06/12 04:06:41;;;;;;;31.50;17.52;;;;;;;17.79;58.49;98483.34;5094066;28;20028;-80
2021/06/12 04:09:06;;;;;;;33.05;18.80;;;;;;;17.82;58.22;98482.69;5093646;28;20035;-81
2021/06/12 04:11:32;;;;;;;36.05;19.58;;;;;;;17.88;58.36;98483.28;5094817;28;20034;-81
2021/06/12 04:13:59;;;;;;;34.47;18.20;;;;;;;17.95;58.44;98485.47;5094381;28;20036;-81
2021/06/12 04:16:25;;;;;;;32.28;18.40;;;;;;;18.01;58.27;98486.91;5095454;28;20016;-81
2021/06/12 04:18:50;;;;;;;35.90;19.38;;;;;;;18.03;58.31;98481.81;5093869;28;20427;-82
2021/06/12 04:21:16;;;;;;;31.15;19.70;;;;;;;18.03;58.57;98487.38;5075437;28;20483;-81
2021/06/12 04:23:42;;;;;;;34.50;19.02;;;;;;;18.07;58.11;98484.69;5093569;28;20024;-83
2021/06/12 04:26:07;;;;;;;32.60;18.52;;;;;;;18.12;58.31;98485.31;5094425;28;20024;-81
2021/06/12 04:28:32;;;;;;;34.15;18.83;;;;;;;18.17;58.51;98486.19;5089518;28;20403;-81
2021/06/12 04:30:58;;;;;;;32.25;19.00;;;;;;;18.21;58.60;98481.59;5093660;28;20055;-80
2021/06/12 04:33:23;;;;;;;36.38;19.90;;;;;;;18.28;58.64;98487.38;5093915;28;20598;-82
2021/06/12 04:35:48;;;;;;;41.75;19.90;;;;;;;18.37;58.34;98473.38;5093265;28;20027;-81
2021/06/12 04:38:14;;;;;;;33.80;19.75;;;;;;;18.45;58.88;98481.59;5093083;28;20028;-80
2021/06/12 04:40:39;;;;;;;40.45;21.35;;;;;;;18.53;58.77;98473.50;5074750;28;20020;-81
2021/06/12 04:43:06;;;;;;;38.47;23.25;;;;;;;18.62;58.82;98473.34;5095871;28;20027;-81
2021/06/12 04:45:32;;;;;;;40.92;21.63;;;;;;;18.71;58.54;98476.81;5093098;28;20024;-81
2021/06/12 04:47:58;;;;;;;40.58;23.17;;;;;;;18.75;59.38;98478.53;5095236;28;20021;-81
2021/06/12 04:50:24;;;;;;;40.85;22.00;;;;;;;18.83;58.87;98467.63;5095724;28;20069;-82
2021/06/12 04:52:50;;;;;;;44.33;25.20;;;;;;;18.94;59.07;98468.78;5093280;28;20103;-81
2021/06/12 04:55:15;;;;;;;41.30;22.75;;;;;;;19.04;58.94;98459.16;5074688;28;20131;-82
2021/06/12 04:57:41;;;;;;;42.63;23.13;;;;;;;19.16;58.92;98464.63;5093762;28;20451;-81
2021/06/12 05:00:09;;;;;;;43.22;23.20;;;;;;;19.26;58.69;98468.91;5092821;28;20020;-81
2021/06/12 05:02:35;;;;;;;39.55;23.80;;;;;;;19.36;58.94;98462.00;5092886;28;20026;-81
2021/06/12 05:05:00;;;;;;;42.35;24.25;;;;;;;19.46;58.97;98464.28;5092822;28;20028;-81
2021/06/12 05:07:27;;;;;;;36.75;22.10;;;;;;;19.54;58.69;98456.16;5092867;28;20055;-80
2021/06/12 05:09:53;;;;;;;36.90;23.10;;;;;;;19.61;58.59;98461.88;5092890;28;20069;-80
2021/06/12 05:12:19;;;;;;;38.17;23.42;;;;;;;19.68;58.66;98461.28;5091958;28;20099;-79
2021/06/12 05:14:47;;;;;;;38.58;23.10;;;;;;;19.71;58.53;98463.34;5092116;28;20024;-79
2021/06/12 05:17:15;;;;;;;38.22;23.13;;;;;;;19.80;58.61;98452.81;5092528;28;20016;-80
2021/06/12 05:19:41;;;;;;;36.57;22.63;;;;;;;19.87;58.59;98453.00;5092256;28;20122;-79
2021/06/12 05:22:06;;;;;;;37.22;23.98;;;;;;;19.89;58.44;98445.16;5093323;28;20106;-80
2021/06/12 05:24:33;;;;;;;40.78;23.90;;;;;;;19.96;58.33;98446.50;5093796;28;20074;-79
2021/06/12 05:26:59;;;;;;;34.75;21.67;;;;;;;19.98;58.25;98452.50;5092579;28;20020;-79
2021/06/12 05:29:24;;;;;;;37.35;23.13;;;;;;;20.02;58.18;98443.06;5092238;28;20024;-78
2021/06/12 05:31:50;;;;;;;39.65;23.13;;;;;;;20.08;58.14;98444.41;5073743;28;20093;-78
2021/06/12 05:34:15;;;;;;;44.10;23.85;;;;;;;20.14;58.35;98444.16;5092448;28;20357;-79
2021/06/12 05:36:40;;;;;;;39.60;23.25;;;;;;;20.20;58.28;98437.13;5092678;28;20081;-80
2021/06/12 05:39:06;;;;;;;42.47;23.65;;;;;;;20.26;58.07;98444.06;5093082;28;20043;-79
2021/06/12 05:41:32;;;;;;;43.63;24.95;;;;;;;20.31;58.22;98441.00;5094581;28;20039;-79
2021/06/12 05:43:57;;;;;;;42.80;24.77;;;;;;;20.37;58.30;98431.19;5093014;28;20032;-79
2021/06/12 05:46:23;;;;;;;40.75;24.25;;;;;;;20.45;58.00;98439.69;5096068;28;20031;-79
2021/06/12 05:48:48;;;;;;;41.28;23.83;;;;;;;20.47;57.91;98438.16;5092299;28;20024;-79
2021/06/12 05:51:13;;;;;;;47.85;24.35;;;;;;;20.53;57.75;98442.28;5091929;28;20071;-80
2021/06/12 05:53:39;;;;;;;38.08;20.80;;;;;;;20.55;57.51;98433.56;5093996;28;20063;-79
2021/06/12 05:56:04;;;;;;;35.03;19.65;;;;;;;20.55;57.24;98432.75;5092627;28;20055;-80
2021/06/12 05:58:32;;;;;;;36.30;20.75;;;;;;;20.57;56.98;98428.44;5092216;28;20016;-80
2021/06/12 06:00:57;;;;;;;39.10;22.25;;;;;;;20.58;56.87;98432.03;5091670;28;20028;-80
2021/06/12 06:03:22;;;;;;;34.00;19.67;;;;;;;20.62;56.85;98425.34;5092975;28;20034;-79
2021/06/12 06:05:48;;;;;;;36.50;20.55;;;;;;;20.68;57.14;98426.69;5094307;28;20080;-79
2021/06/12 06:08:13;;;;;;;32.78;20.83;;;;;;;20.74;56.88;98429.19;5091719;28;20036;-79
2021/06/12 06:10:38;;;;;;;34.95;21.70;;;;;;;20.77;56.53;98425.72;5091498;28;20070;-79
2021/06/12 06:13:05;;;;;;;35.63;21.58;;;;;;;20.80;56.56;98427.75;5091548;28;20020;-80
2021/06/12 06:15:30;;;;;;;30.40;18.90;;;;;;;20.82;56.89;98430.97;5087601;28;20019;-79
2021/06/12 06:17:56;;;;;;;36.55;22.27;;;;;;;20.89;56.83;98428.34;5091231;28;20476;-79
2021/06/12 06:20:22;;;;;;;33.83;20.95;;;;;;;20.94;56.52;98427.25;5092876;28;20111;-79
2021/06/12 06:22:47;;;;;;;34.13;20.02;;;;;;;20.99;56.48;98432.50;5073293;28;20013;-79
2021/06/12 06:25:13;;;;;;;35.42;18.90;;;;;;;21.01;56.42;98424.59;5092239;28;20024;-79
2021/06/12 06:27:38;;;;;;;34.17;19.88;;;;;;;21.06;56.85;98435.44;5095248;28;20066;-80
2021/06/12 06:30:06;;;;;;;31.73;19.10;;;;;;;21.11;56.44;98426.78;5091329;28;20024;-80
2021/06/12 06:32:31;;;;;;;29.95;17.85;;;;;;;21.19;56.54;98429.72;5091639;28;20496;-80
2021/06/12 06:34:57;;;;;;;28.13;16.80;;;;;;;21.24;56.58;98430.22;5095627;28;20078;-79
2021/06/12 06:37:22;;;;;;;25.38;16.45;;;;;;;21.31;56.27;98429.56;5097402;28;20073;-79
2021/06/12 06:39:48;;;;;;;25.63;15.80;;;;;;;21.34;56.26;98428.84;5107213;28;20024;-79
2021/06/12 06:42:13;;;;;;;27.20;16.65;;;;;;;21.37;56.06;98427.28;5133620;28;20087;-81
2021/06/12 06:44:39;;;;;;;23.80;15.10;;;;;;;21.42;55.67;98424.19;5130071;28;20039;-81
2021/06/12 06:47:06;;;;;;;28.67;16.08;;;;;;;21.42;55.61;98424.19;5113007;28;20032;-79
2021/06/12 06:49:32;;;;;;;26.08;15.70;;;;;;;21.44;54.90;98424.63;5106861;28;20035;-81
2021/06/12 06:51:57;;;;;;;25.83;15.63;;;;;;;21.47;55.22;98428.66;5109334;28;20089;-78
2021/06/12 06:54:23;;;;;;;27.63;15.73;;;;;;;21.53;55.10;98424.38;5104427;28;20036;-79
2021/06/12 06:56:48;;;;;;;24.38;14.27;;;;;;;21.60;54.94;98435.69;5113857;28;20032;-79
2021/06/12 06:59:15;;;;;;;23.42;15.02;;;;;;;21.63;55.04;98432.19;5108721;28;20516;-79
2021/06/12 07:01:41;;;;;;;32.78;17.85;;;;;;;21.69;54.95;98436.28;5119025;27;20365;-79
2021/06/12 07:04:06;;;;;;;29.27;16.40;;;;;;;21.77;54.88;98433.63;5093100;28;20031;-78
2021/06/12 07:06:32;;;;;;;24.35;14.10;;;;;;;21.81;55.01;98434.47;5094617;28;20024;-79
2021/06/12 07:08:57;;;;;;;22.30;14.45;;;;;;;21.82;54.95;98427.69;5092197;28;20498;-79
2021/06/12 07:11:23;;;;;;;33.97;17.77;;;;;;;21.88;54.74;98431.78;5092209;28;20103;-79
2021/06/12 07:13:48;;;;;;;29.88;18.88;;;;;;;21.95;54.56;98429.13;5077654;28;20015;-78
2021/06/12 07:16:13;;;;;;;33.22;18.30;;;;;;;22.01;54.78;98427.63;5106982;28;20027;-78
2021/06/12 07:18:39;;;;;;;36.45;20.55;;;;;;;22.06;54.38;98428.50;5090611;28;20017;-80
2021/06/12 07:21:04;;;;;;;33.60;19.30;;;;;;;22.13;54.29;98429.41;5112334;28;20471;-80
2021/06/12 07:23:30;;;;;;;36.50;21.48;;;;;;;22.16;53.85;98425.06;5091864;28;20028;-80
2021/06/12 07:25:56;;;;;;;38.10;21.17;;;;;;;22.20;53.94;98419.53;5105178;28;20084;-78
2021/06/12 07:28:21;;;;;;;38.42;20.98;;;;;;;22.26;53.85;98423.63;5083242;28;20126;-76
2021/06/12 07:30:47;;;;;;;31.95;18.70;;;;;;;22.29;53.86;98423.66;5098987;28;20062;-78
2021/06/12 07:33:13;;;;;;;32.78;19.25;;;;;;;22.30;53.75;98422.47;5092887;28;20384;-79
2021/06/12 07:35:40;;;;;;;30.02;18.73;;;;;;;22.36;53.55;98425.78;5092374;28;20029;-78
2021/06/12 07:38:07;;;;;;;21.05;13.88;;;;;;;22.44;52.25;98429.50;5095067;28;20028;-79
2021/06/12 07:40:33;;;;;;;25.13;16.20;;;;;;;22.45;52.67;98431.13;5107438;28;20040;-79
2021/06/12 07:42:58;;;;;;;24.08;14.88;;;;;;;22.51;51.95;98432.41;5092322;28;20039;-79
2021/06/12 07:45:24;;;;;;;21.80;13.38;;;;;;;22.59;52.06;98436.09;5095399;28;20032;-80
2021/06/12 07:47:50;;;;;;;23.45;13.00;;;;;;;22.65;52.36;98431.78;5101848;28;20499;-80
2021/06/12 07:50:16;;;;;;;21.92;13.45;;;;;;;22.76;52.73;98420.75;5096018;28;20032;-79
2021/06/12 07:52:42;;;;;;;20.88;13.27;;;;;;;22.87;52.37;98426.47;5092004;28;20496;-80
2021/06/12 07:55:08;;;;;;;23.15;12.88;;;;;;;22.95;52.17;98425.38;5094288;28;20020;-80
2021/06/12 07:57:34;;;;;;;23.15;13.27;;;;;;;23.01;51.84;98421.06;5094547;28;20492;-78
2021/06/12 07:59:59;;;;;;;18.60;12.77;;;;;;;23.13;51.63;98414.41;5098251;28;20109;-78
2021/06/12 08:02:25;;;;;;;17.13;11.27;;;;;;;23.20;51.61;98413.69;5094924;28;20076;-80
2021/06/12 08:04:51;;;;;;;18.33;11.68;;;;;;;23.21;51.58;98406.91;5093544;28;20028;-78
2021/06/12 08:07:17;;;;;;;17.95;11.82;;;;;;;23.29;51.22;98405.81;5075873;28;20031;-77
2021/06/12 08:09:43;;;;;;;22.42;12.05;;;;;;;23.38;51.27;98401.91;5094003;28;20024;-77
2021/06/12 08:12:09;;;;;;;16.88;11.52;;;;;;;23.47;51.02;98397.59;5076521;28;20028;-77
2021/06/12 08:14:34;;;;;;;20.50;13.93;;;;;;;23.58;51.11;98397.72;5075319;28;20035;-77
2021/06/12 08:16:59;;;;;;;18.48;11.73;;;;;;;23.70;51.05;98398.59;5094718;28;20107;-77
2021/06/12 08:19:25;;;;;;;25.13;17.25;;;;;;;23.81;50.55;98398.72;5094913;28;20020;-77
2021/06/12 08:21:50;;;;;;;22.30;12.68;;;;;;;23.89;50.38;98391.97;5092674;28;20058;-76
2021/06/12 08:24:16;;;;;;;17.48;11.38;;;;;;;23.94;50.13;98383.22;5094377;28;20110;-76
2021/06/12 08:26:41;;;;;;;22.77;14.38;;;;;;;23.98;49.84;98392.47;5097342;28;20432;-75
2021/06/12 08:29:07;;;;;;;28.50;15.45;;;;;;;24.11;50.13;98387.38;5103781;28;20046;-76
2021/06/12 08:31:34;;;;;;;25.63;14.90;;;;;;;24.21;48.91;98385.84;5101499;28;20866;-76
2021/06/12 08:34:00;;;;;;;25.95;14.45;;;;;;;24.26;48.88;98391.06;5102868;28;20020;-76
2021/06/12 08:36:28;;;;;;;23.67;14.73;;;;;;;24.36;49.10;98397.94;5104545;28;20031;-78
2021/06/12 08:38:54;;;;;;;27.73;13.60;;;;;;;24.48;48.91;98383.59;5099024;28;20720;-79
2021/06/12 08:41:19;;;;;;;21.17;13.60;;;;;;;24.59;47.71;98382.84;5102733;28;20269;-80
2021/06/12 08:43:45;;;;;;;21.63;13.05;;;;;;;24.63;47.21;98383.66;5098918;28;20048;-80
2021/06/12 08:46:11;;;;;;;17.73;12.93;;;;;;;24.68;47.47;98386.88;5093514;28;20031;-79
2021/06/12 08:48:38;;;;;;;22.20;14.13;;;;;;;24.77;47.49;98395.00;5092470;28;20020;-79
2021/06/12 08:51:03;;;;;;;18.42;12.55;;;;;;;24.85;46.76;98387.41;5082995;28;20086;-79
2021/06/12 08:53:31;;;;;;;20.17;14.40;;;;;;;24.92;47.37;98384.63;5104096;28;20020;-78
2021/06/12 08:56:00;;;;;;;18.70;12.60;;;;;;;25.03;47.11;98389.47;5081238;28;20024;-80
2021/06/12 08:58:26;;;;;;;20.73;14.30;;;;;;;25.06;46.30;98383.09;5095654;28;20112;-80
2021/06/12 09:00:51;;;;;;;18.70;14.13;;;;;;;25.14;46.00;98383.91;5103770;28;20110;-81
2021/06/12 09:03:22;;;;;;;18.15;11.95;;;;;;;25.23;46.76;98382.31;5107265;28;20020;-81
2021/06/12 09:05:56;;;;;;;21.08;13.32;;;;;;;25.36;47.13;98379.13;5072645;28;20036;-80
2021/06/12 09:08:22;;;;;;;17.35;12.18;;;;;;;25.48;47.01;98381.56;5076405;28;20035;-80
2021/06/12 09:10:57;;;;;;;19.65;13.88;;;;;;;25.57;46.58;98378.41;5070365;28;20062;-82
2021/06/12 09:13:54;;;;;;;20.73;13.38;;;;;;;25.66;46.01;98378.00;5075260;28;20108;-79
2021/06/12 09:16:22;;;;;;;18.83;14.20;;;;;;;25.78;45.44;98388.03;5080062;28;20111;-80
2021/06/12 09:18:49;;;;;;;18.10;13.55;;;;;;;25.88;46.07;98387.22;5070671;28;20032;-81
2021/06/12 09:21:33;;;;;;;24.38;15.27;;;;;;;25.97;44.71;98384.81;5065373;28;20029;-79
2021/06/12 09:24:00;;;;;;;18.63;14.50;;;;;;;26.03;45.07;98376.78;5065332;28;20071;-81
2021/06/12 09:26:40;;;;;;;21.08;15.55;;;;;;;26.08;44.98;98373.56;5061152;28;20656;-77
2021/06/12 09:29:06;;;;;;;25.65;15.77;;;;;;;26.17;45.69;98369.56;5062004;28;20569;-79
2021/06/12 09:31:31;;;;;;;21.83;14.27;;;;;;;26.28;44.67;98370.38;5056155;28;20567;-82
2021/06/12 09:33:56;;;;;;;19.33;14.55;;;;;;;26.32;45.11;98370.34;5067497;28;20033;-82
2021/06/12 09:36:33;;;;;;;19.05;14.25;;;;;;;26.38;44.83;98363.09;5066829;28;20036;-82
2021/06/12 09:39:07;;;;;;;19.50;13.48;;;;;;;26.39;45.07;98359.88;5064900;28;20040;-86
2021/06/12 09:41:33;;;;;;;20.23;15.15;;;;;;;26.44;44.47;98353.84;5065339;28;20063;-79
2021/06/12 09:43:58;;;;;;;20.65;13.32;;;;;;;26.50;44.80;98348.59;5064643;28;20115;-75
2021/06/12 09:46:39;;;;;;;22.02;14.25;;;;;;;26.58;44.84;98355.00;5064167;28;20035;-74
2021/06/12 09:49:07;;;;;;;17.58;13.23;;;;;;;26.64;43.91;98356.19;5039629;28;20032;-75
2021/06/12 09:51:33;;;;;;;74.78;39.78;;;;;;;26.67;43.93;98351.75;5059095;28;20085;-76
2021/06/12 09:54:01;;;;;;;18.63;12.90;;;;;;;26.67;43.58;98355.38;5063980;28;20064;-75
2021/06/12 09:56:27;;;;;;;16.10;11.48;;;;;;;26.63;41.38;98346.16;5048402;28;20051;-74
2021/06/12 09:58:55;;;;;;;14.48;11.98;;;;;;;26.52;42.05;98342.56;5067150;28;20384;-74
2021/06/12 10:01:24;;;;;;;26.58;18.83;;;;;;;26.43;42.34;98343.78;5065823;28;20036;-74
2021/06/12 10:04:07;;;;;;;16.23;12.40;;;;;;;26.42;42.73;98342.19;5065306;28;20245;-75
2021/06/12 10:06:32;;;;;;;13.45;10.50;;;;;;;26.39;43.20;98340.19;5063952;28;20028;-74
2021/06/12 10:09:02;;;;;;;68.95;54.33;;;;;;;26.39;43.10;98343.00;5057115;28;20032;-74
2021/06/12 10:11:30;;;;;;;17.17;11.00;;;;;;;26.38;42.91;98347.03;5055393;28;20562;-74
2021/06/12 10:13:56;;;;;;;25.48;16.73;;;;;;;26.38;43.05;98347.03;5060798;28;20040;-76
2021/06/12 10:16:24;;;;;;;13.20;9.85;;;;;;;26.32;42.65;98345.81;5064819;28;20112;-75
2021/06/12 10:18:52;;;;;;;11.77;9.43;;;;;;;26.27;42.42;98347.06;5065173;28;20039;-76
2021/06/12 10:21:18;;;;;;;11.60;9.60;;;;;;;26.19;42.04;98339.06;5064601;28;20074;-76
2021/06/12 10:23:46;;;;;;;11.68;9.10;;;;;;;26.17;42.10;98335.84;5062193;28;20302;-77
2021/06/12 10:26:14;;;;;;;14.57;9.23;;;;;;;26.14;42.04;98329.00;5060938;28;20044;-77
2021/06/12 10:28:39;;;;;;;14.68;9.45;;;;;;;26.13;42.18;98325.41;5062267;28;20034;-76
2021/06/12 10:31:07;;;;;;;10.55;9.20;;;;;;;26.15;42.56;98328.63;5056016;28;20683;-76
2021/06/12 10:33:34;;;;;;;13.40;9.48;;;;;;;26.17;42.16;98336.63;5056869;28;20115;-75
2021/06/12 10:36:30;;;;;;;19.67;10.00;;;;;;;26.24;42.68;98333.81;5065150;28;20040;-75
2021/06/12 10:38:57;;;;;;;13.63;8.82;;;;;;;26.33;42.47;98335.41;5057360;28;20622;-74
2021/06/12 10:41:26;;;;;;;10.75;9.10;;;;;;;26.37;42.24;98334.16;5066978;28;20032;-73
2021/06/12 10:43:58;;;;;;;11.93;8.75;;;;;;;26.43;41.41;98326.13;5065908;28;20035;-74
2021/06/12 10:46:27;;;;;;;11.90;8.55;;;;;;;26.47;42.36;98328.94;5065145;28;20032;-74
2021/06/12 10:48:59;;;;;;;;;;;;;;;26.58;42.71;98326.88;5065069;28;20380;-75
2021/06/12 10:51:27;;;;;;;13.32;9.07;;;;;;;26.69;42.06;98313.59;5056017;28;20013;-74
2021/06/12 10:54:21;;;;;;;13.13;9.48;;;;;;;26.80;41.94;98307.06;5055028;28;20360;-76
2021/06/12 10:56:57;;;;;;;13.48;8.10;;;;;;;26.80;41.34;98298.63;5062032;28;20031;-75
2021/06/12 10:59:42;;;;;;;15.43;8.70;;;;;;;26.74;40.88;98293.44;5065248;28;20032;-75
2021/06/12 11:04:42;;;;;;;14.15;8.35;;;;;;;26.69;40.99;98287.44;5063069;28;20119;-75
2021/06/12 11:07:27;;;;;;;12.45;8.48;;;;;;;26.65;40.79;98269.78;5062089;28;20490;-74
2021/06/12 11:10:11;;;;;;;12.65;8.20;;;;;;;26.65;40.91;98266.97;5062654;28;20517;-76
2021/06/12 11:12:47;;;;;;;13.77;8.82;;;;;;;26.67;40.59;98259.75;5058740;28;20044;-76
2021/06/12 11:15:21;;;;;;;12.65;8.52;;;;;;;26.68;40.85;98247.28;5058825;28;20232;-76
2021/06/12 11:18:13;;;;;;;12.35;8.80;;;;;;;26.63;40.48;98246.91;5066113;28;20393;-74
2021/06/12 11:20:45;;;;;;;11.27;8.70;;;;;;;26.66;40.43;98235.63;5086213;28;20024;-74
2021/06/12 11:23:13;;;;;;;13.45;9.07;;;;;;;26.68;40.73;98233.22;5086513;28;20652;-73
2021/06/12 11:25:42;;;;;;;13.07;9.75;;;;;;;26.77;40.59;98237.56;5068579;28;21017;-74